Islamorada, FL (33036)

7:32 PM EST on December 04, 2016 (GMT -0500)
Oceana | | Change Station

Elev 26 ft 24.92 °N, 80.63 °W | Updated 5 seconds ago

Overcast
Overcast
77.9 °F
Feels Like 80 °F
N
5.6
Wind Variable Wind from SE
Gusts 7.4 mph

Today
High -- | Low -- °F
--% Chance of Precip.
Yesterday
High -- | Low -- °F
Precip. -- in
Pressure 30.04 in
Visibility 10.0 miles
Clouds Scattered Clouds 2200 ft
Overcast 2900 ft
Heat Index 80 °F
Dew Point 75 °F
Humidity 90%
Rainfall 0.00 in
Snow Depth Not available.
6:52 AM 5:33 PM
Waxing Crescent, 26% visible
SPECI KHST 050013Z AUTO 09007KT 10SM SCT022 OVC029 25/23 A3004 RMK AO2 OVC V BKN
Pressure 30.04 in
Visibility 10.0 miles
Clouds Scattered Clouds 2200 ft
Overcast 2900 ft
Heat Index 80 °F
Dew Point 75 °F
Humidity 90%
Rainfall 0.00 in
Snow Depth Not available.
6:52 AM 5:33 PM
Waxing Crescent, 26% visible
SPECI KHST 050013Z AUTO 09007KT 10SM SCT022 OVC029 25/23 A3004 RMK AO2 OVC V BKN

10-Day Weather Forecast

Almanac

Astronomy

Dec. 04, 2016 Rise Set
Actual Time
Civil Twilight
Nautical Twilight
Astronomical Twilight
Moon
Length of Visible Light
Length of Day
Tomorrow will be .
, % of the Moon is Illuminated

Today's Extremes

State Highs State Lows

Community

WunderPhotos

Upload Photos

1,955,725 photos uploaded!

WunderBlog® & News

Nearby

Air Quality

  Air Quality AQ Index Pollutant
Not available.

Snow Depth

Station Depth Elevation

Earthquake Activity

City Distance Mag. Time & Date
Minimum magnitude displayed is 2.5.

Coastal Water Temperatures

Place Temperature

Stations

Nearby Weather Stations

Station Location Temp. Windchill Dew Point Humidity Wind Precip. Elev Updated Type
                   

Watches & Warnings

There are currently no watches in effect.